»·PEaware :: DLH511 SAEZ-EDDF

DLH511 :: SAEZ-EDDF

FLIGHT INFORMATION

Flight Status: Arrived
Operator:
Lufthansa
More flights by this operator :: More flights under this callsign
Pilot: Anonymous 14085 (14085)
Aircraft: Unknown
(B77W)
More flights by this aircraft type
Origin: SAEZ Ministro Pistarini Intl
Argentina
Destination: EDDF Frankfurt/Main
Germany
More flights between these airports :: More routes between these airports
Route: LAND2A LANDA ILSIM ATARI UM654 FLZ VADIR JOBER CARVE 11N030W EDIPA KESIK USOTI UN866 BEXAL TOSDI UN745 ZMR UN873 DESAB UN867 MOKOR UN741 ANG UL976 OBATO UM163 TSU UN858 VALEK UM163 DIK UT856 ADUSU T856 NIVNU T180 UNOKO UNOK2R
File this flight plan on PilotEdge
Remarks: PBN / A1B1C1D1L1O1S2 DOF / 170622 REG / N713SB EET / SUEO0014 SBCW0038 SBBS0156 SBRE0254 SBAO0451 GOOO0553 11N030W0637 GVSC0709 GCCC0815 GMMM0938 LPPC1019 LECM1101 LFFF1135 EBUR1242 EDUU1246 EDGG1253 OPR / DLH RALT / SBFZ GVAC RMK / TCAS SIMBRIEF
Altitude:
(Current/Filed)
31,000ft
Speed:
(Current/Filed)
486kts
Departed: 21-Jun-17 08:24 PM
Arrived: 22-Jun-17 09:15 AM
Distance/Time
Traveled:
6206nm/12:51
Distance/Time
To Go:
Arrived

Flight Plot

Page will automatically refresh every two minutes.

Flight plan parsing failed; only flown route is shown


Map Options




Map Legend


Flown Route
Filed Route
Departure Airport
Arrival Airport
Navaid (VOR, NDB)
Fix

Horizontal Profiles

Position Reports

Time Latitude Longitude Heading Altitude Ground
Speed
21-Jun-17 20:16 -34.819218 -58.553194 102 74ft 0kts
21-Jun-17 20:17 -34.819220 -58.553184 102 75ft 0kts
21-Jun-17 20:18 -34.819220 -58.553184 102 74ft 0kts
21-Jun-17 20:19 -34.819220 -58.553184 102 74ft 0kts
21-Jun-17 20:20 -34.819220 -58.553184 102 74ft 0kts
21-Jun-17 20:21 -34.819220 -58.553184 102 74ft 0kts
21-Jun-17 20:22 -34.819220 -58.553184 102 74ft 0kts
21-Jun-17 20:23 -34.819220 -58.553184 102 74ft 0kts
21-Jun-17 20:24 -34.819220 -58.553184 102 74ft 0kts
21-Jun-17 20:25 -34.819220 -58.553184 102 74ft 0kts
21-Jun-17 20:26 -34.819220 -58.553184 102 74ft 0kts
21-Jun-17 20:27 -34.820272 -58.547182 102 77ft 105kts
21-Jun-17 20:28 -34.837230 -58.477998 125 3153ft 274kts
21-Jun-17 20:29 -34.871600 -58.396500 101 8814ft 288kts
21-Jun-17 20:30 -34.892269 -58.299150 101 12622ft 384kts
21-Jun-17 20:31 -34.917882 -58.175862 104 20607ft 390kts
21-Jun-17 20:32 -34.946466 -58.038946 108 25364ft 462kts
21-Jun-17 20:33 -34.948445 -57.871734 72 29897ft 527kts
21-Jun-17 20:34 -34.873663 -57.719262 38 31090ft 525kts
21-Jun-17 20:35 -34.768324 -57.592090 45 31079ft 541kts
21-Jun-17 20:36 -34.672394 -57.453538 46 31070ft 529kts
21-Jun-17 20:37 -34.578312 -57.317107 45 31069ft 525kts
21-Jun-17 20:38 -34.484426 -57.181561 45 31073ft 526kts
21-Jun-17 20:39 -34.390198 -57.045965 45 31074ft 527kts
21-Jun-17 20:40 -34.294399 -56.908633 45 31129ft 538kts
21-Jun-17 20:41 -34.198990 -56.772472 45 31133ft 526kts
21-Jun-17 20:42 -34.104453 -56.638200 45 31132ft 527kts
21-Jun-17 20:43 -34.009223 -56.503439 45 31134ft 529kts
21-Jun-17 20:44 -33.912157 -56.366529 45 31130ft 538kts
21-Jun-17 20:45 -33.819042 -56.236364 45 31127ft 538kts
21-Jun-17 20:46 -33.723173 -56.102320 45 31131ft 527kts
21-Jun-17 20:47 -33.627485 -55.968826 45 31129ft 528kts
21-Jun-17 20:48 -33.532012 -55.836110 45 31131ft 528kts
21-Jun-17 20:48 -33.452046 -55.725321 45 31132ft 528kts
21-Jun-17 20:49 -33.355856 -55.592500 45 31133ft 528kts
21-Jun-17 20:51 -33.259687 -55.460295 45 31141ft 530kts
21-Jun-17 20:52 -33.163257 -55.328019 44 31126ft 528kts
21-Jun-17 20:53 -33.067081 -55.196689 44 31127ft 528kts
21-Jun-17 20:54 -32.970286 -55.064968 44 31128ft 528kts
21-Jun-17 20:55 -32.873992 -54.934406 44 31130ft 528kts
21-Jun-17 20:56 -32.776889 -54.803219 44 31131ft 528kts
21-Jun-17 20:57 -32.679991 -54.672811 44 31133ft 529kts
21-Jun-17 20:58 -32.582523 -54.542123 44 31144ft 530kts
21-Jun-17 20:59 -32.484960 -54.411622 44 31244ft 529kts
21-Jun-17 21:00 -32.389861 -54.284973 44 31234ft 540kts
21-Jun-17 21:01 -32.291751 -54.153117 44 31231ft 527kts
21-Jun-17 21:02 -32.195223 -54.022476 45 31237ft 530kts
21-Jun-17 21:03 -32.096586 -53.889393 45 31238ft 541kts
21-Jun-17 21:04 -31.999006 -53.758296 44 31242ft 529kts
21-Jun-17 21:05 -31.901656 -53.628096 44 31241ft 530kts
21-Jun-17 21:06 -31.804231 -53.498223 44 31245ft 530kts
21-Jun-17 21:07 -31.706716 -53.368712 45 31244ft 531kts
21-Jun-17 21:08 -31.609302 -53.239717 44 31234ft 530kts
21-Jun-17 21:09 -31.511569 -53.110776 44 31236ft 530kts
21-Jun-17 21:10 -31.413729 -52.982130 44 31237ft 530kts
21-Jun-17 21:11 -31.315575 -52.853510 44 31239ft 530kts
21-Jun-17 21:12 -31.217572 -52.725518 44 31240ft 530kts
21-Jun-17 21:13 -31.119144 -52.597420 44 31245ft 531kts
21-Jun-17 21:14 -31.020505 -52.469446 44 31244ft 532kts
21-Jun-17 21:15 -30.923527 -52.344066 44 31243ft 541kts
21-Jun-17 21:16 -30.823462 -52.217764 43 31237ft 529kts
21-Jun-17 21:17 -30.723421 -52.093040 43 31236ft 530kts
21-Jun-17 21:18 -30.622821 -51.968025 43 31238ft 530kts
21-Jun-17 21:19 -30.521241 -51.842194 43 31240ft 542kts
21-Jun-17 21:20 -30.419777 -51.714922 45 31219ft 530kts
21-Jun-17 21:21 -30.321951 -51.587305 44 31243ft 531kts
21-Jun-17 21:22 -30.223712 -51.459603 44 31243ft 531kts
21-Jun-17 21:23 -30.125785 -51.332700 44 31237ft 531kts
21-Jun-17 21:24 -30.025721 -51.203504 44 31235ft 542kts
21-Jun-17 21:25 -29.924341 -51.079374 42 31265ft 529kts
21-Jun-17 21:26 -29.822137 -50.957446 42 31264ft 530kts
21-Jun-17 21:27 -29.719918 -50.835872 42 31266ft 530kts
21-Jun-17 21:28 -29.615018 -50.711253 41 33295ft 554kts
21-Jun-17 21:29 -29.508770 -50.585878 41 33271ft 549kts
21-Jun-17 21:30 -29.405678 -50.456419 44 33272ft 551kts
21-Jun-17 21:31 -29.304179 -50.326371 43 33260ft 550kts
21-Jun-17 21:32 -29.205749 -50.200740 43 33262ft 551kts
21-Jun-17 21:33 -29.103713 -50.071141 44 33258ft 539kts
21-Jun-17 21:34 -29.002940 -49.943010 44 33240ft 539kts
21-Jun-17 21:35 -28.902566 -49.816085 44 33322ft 543kts
21-Jun-17 21:36 -28.803116 -49.690711 44 33321ft 542kts
21-Jun-17 21:37 -28.702099 -49.563754 44 33323ft 542kts
21-Jun-17 21:38 -28.600734 -49.436755 44 33325ft 542kts
21-Jun-17 21:39 -28.499416 -49.310190 44 33311ft 542kts
21-Jun-17 21:40 -28.398019 -49.183948 44 33316ft 542kts
21-Jun-17 21:41 -28.296600 -49.058049 44 33318ft 542kts
21-Jun-17 21:42 -28.195077 -48.930906 44 33292ft 540kts
21-Jun-17 21:43 -28.094406 -48.804894 44 33323ft 542kts
21-Jun-17 21:44 -27.993248 -48.678581 44 33323ft 542kts
21-Jun-17 21:45 -27.892228 -48.552826 44 33324ft 542kts
21-Jun-17 21:46 -27.791015 -48.427310 44 33324ft 542kts
21-Jun-17 21:47 -27.696392 -48.310312 44 33311ft 542kts
21-Jun-17 21:48 -27.595009 -48.185345 44 33316ft 542kts
21-Jun-17 21:49 -27.493094 -48.060118 44 33311ft 549kts
21-Jun-17 21:50 -27.391231 -47.935252 43 33322ft 541kts
21-Jun-17 21:51 -27.289051 -47.811312 43 33321ft 542kts
21-Jun-17 21:52 -27.186923 -47.687823 43 33322ft 541kts
21-Jun-17 21:53 -27.084637 -47.564499 43 33324ft 541kts
21-Jun-17 21:54 -26.982103 -47.441232 43 33326ft 541kts
21-Jun-17 21:55 -26.879575 -47.318287 43 33311ft 540kts
21-Jun-17 21:56 -26.776967 -47.195677 43 33329ft 540kts
21-Jun-17 21:57 -26.674385 -47.073407 43 33344ft 540kts
21-Jun-17 21:58 -26.571277 -46.951620 42 33346ft 540kts
21-Jun-17 21:59 -26.468020 -46.830285 42 33347ft 540kts
21-Jun-17 22:00 -26.364707 -46.709221 42 33349ft 540kts
21-Jun-17 22:01 -26.261380 -46.588476 42 33351ft 540kts
21-Jun-17 22:02 -26.158017 -46.468023 43 33323ft 540kts
21-Jun-17 22:03 -26.054127 -46.347280 42 33326ft 540kts
21-Jun-17 22:04 -25.950541 -46.227233 42 33316ft 540kts
21-Jun-17 22:05 -25.849781 -46.110758 42 33316ft 539kts
21-Jun-17 22:06 -25.746135 -45.991278 42 33318ft 539kts
21-Jun-17 22:07 -25.642113 -45.871691 42 33319ft 539kts
21-Jun-17 22:08 -25.538481 -45.752906 42 33321ft 539kts
21-Jun-17 22:09 -25.434339 -45.633853 42 33323ft 539kts
21-Jun-17 22:10 -25.330235 -45.515157 42 33324ft 539kts
21-Jun-17 22:11 -25.226158 -45.396804 42 33326ft 538kts
21-Jun-17 22:12 -25.122066 -45.278738 41 33317ft 538kts
21-Jun-17 22:13 -25.017742 -45.160731 41 33317ft 537kts
21-Jun-17 22:14 -24.913618 -45.043248 42 33318ft 537kts
21-Jun-17 22:15 -24.809637 -44.926225 42 33319ft 537kts
21-Jun-17 22:16 -24.704988 -44.808752 42 33320ft 537kts
21-Jun-17 22:17 -24.600802 -44.692097 42 33322ft 537kts
21-Jun-17 22:18 -24.496297 -44.575386 41 33365ft 537kts
21-Jun-17 22:19 -24.390814 -44.460160 41 33352ft 536kts
21-Jun-17 22:20 -24.288113 -44.348297 40 33353ft 536kts
21-Jun-17 22:21 -24.182698 -44.233765 40 33343ft 535kts
21-Jun-17 22:22 -24.076832 -44.119025 40 33344ft 535kts
21-Jun-17 22:23 -23.971383 -44.005012 40 33346ft 535kts
21-Jun-17 22:24 -23.866439 -43.891832 40 33346ft 535kts
21-Jun-17 22:25 -23.760504 -43.777857 40 33348ft 534kts
21-Jun-17 22:26 -23.655057 -43.664535 42 33347ft 535kts
21-Jun-17 22:27 -23.573049 -43.528131 58 33321ft 542kts
21-Jun-17 22:28 -23.498713 -43.385730 58 33325ft 541kts
21-Jun-17 22:29 -23.424469 -43.243818 57 33316ft 541kts
21-Jun-17 22:30 -23.350066 -43.102006 57 33291ft 541kts
21-Jun-17 22:31 -23.275564 -42.960385 57 33292ft 540kts
21-Jun-17 22:32 -23.200640 -42.819225 57 33293ft 540kts
21-Jun-17 22:33 -23.125433 -42.678061 57 33295ft 540kts
21-Jun-17 22:34 -23.050370 -42.537556 57 33296ft 540kts
21-Jun-17 22:35 -22.977398 -42.401314 57 33319ft 539kts
21-Jun-17 22:36 -22.902078 -42.261118 56 33316ft 539kts
21-Jun-17 22:37 -22.825590 -42.123298 49 33312ft 536kts
21-Jun-17 22:38 -22.713350 -42.023156 29 33323ft 524kts
21-Jun-17 22:39 -22.591428 -41.938121 28 33297ft 520kts
21-Jun-17 22:40 -22.470043 -41.854926 28 33293ft 518kts
21-Jun-17 22:41 -22.348698 -41.771541 31 33289ft 519kts
21-Jun-17 22:42 -22.234800 -41.675797 34 33295ft 521kts
21-Jun-17 22:43 -22.121040 -41.579397 34 33295ft 521kts
21-Jun-17 22:44 -22.007410 -41.483263 34 33296ft 521kts
21-Jun-17 22:45 -21.893732 -41.387291 34 33297ft 520kts
21-Jun-17 22:46 -21.780333 -41.291755 34 33290ft 520kts
21-Jun-17 22:47 -21.666216 -41.196575 33 33289ft 520kts
21-Jun-17 22:48 -21.552228 -41.102281 33 33290ft 519kts
21-Jun-17 22:49 -21.437981 -41.007972 33 33291ft 519kts
21-Jun-17 22:50 -21.326484 -40.916070 33 33292ft 519kts
21-Jun-17 22:51 -21.213563 -40.823116 33 33292ft 519kts
21-Jun-17 22:52 -21.099372 -40.729334 33 33293ft 518kts
21-Jun-17 22:53 -20.985172 -40.635786 33 33294ft 518kts
21-Jun-17 22:54 -20.866313 -40.552400 18 33304ft 509kts
21-Jun-17 22:55 -20.736248 -40.494448 18 33296ft 508kts
21-Jun-17 22:56 -20.605940 -40.436955 18 33297ft 508kts
21-Jun-17 22:57 -20.475636 -40.379603 18 33297ft 508kts
21-Jun-17 22:58 -20.345158 -40.322283 18 33288ft 508kts
21-Jun-17 22:59 -20.218801 -40.255723 29 33301ft 514kts
21-Jun-17 23:00 -20.099398 -40.172921 29 33289ft 514kts
21-Jun-17 23:01 -19.979960 -40.089868 29 33290ft 514kts
21-Jun-17 23:01 -19.880816 -40.021028 29 33291ft 514kts
21-Jun-17 23:02 -19.762244 -39.939331 31 33220ft 494kts
21-Jun-17 23:04 -19.628138 -39.845449 31 33157ft 497kts
21-Jun-17 23:05 -19.513160 -39.764936 31 33157ft 497kts
21-Jun-17 23:05 -19.423945 -39.702573 31 33157ft 497kts
21-Jun-17 23:06 -19.308844 -39.622213 31 33156ft 497kts
21-Jun-17 23:07 -19.193375 -39.541784 31 33157ft 497kts
21-Jun-17 23:08 -19.078193 -39.461668 31 33156ft 497kts
21-Jun-17 23:09 -18.962675 -39.381452 31 33156ft 497kts
21-Jun-17 23:10 -18.849206 -39.302795 31 33157ft 497kts
21-Jun-17 23:12 -18.733927 -39.223014 31 33156ft 497kts
21-Jun-17 23:13 -18.618437 -39.143219 31 33156ft 497kts
21-Jun-17 23:14 -18.503103 -39.063707 31 33156ft 497kts
21-Jun-17 23:15 -18.387618 -38.983501 31 33156ft 497kts
21-Jun-17 23:16 -18.273067 -38.903089 31 33156ft 497kts
21-Jun-17 23:17 -18.157975 -38.822402 31 33156ft 497kts
21-Jun-17 23:18 -18.043090 -38.741987 31 33156ft 497kts
21-Jun-17 23:19 -17.928152 -38.661665 31 33155ft 497kts
21-Jun-17 23:20 -17.813385 -38.581593 31 33158ft 497kts
21-Jun-17 23:21 -17.698766 -38.501788 31 33158ft 498kts
21-Jun-17 23:22 -17.583595 -38.421637 31 33158ft 497kts
21-Jun-17 23:23 -17.470007 -38.342756 31 33157ft 497kts
21-Jun-17 23:24 -17.354715 -38.262812 31 33155ft 497kts
21-Jun-17 23:25 -17.239724 -38.183199 31 33155ft 497kts
21-Jun-17 23:26 -17.124548 -38.103579 31 33155ft 497kts
21-Jun-17 23:27 -17.009126 -38.023909 31 33155ft 497kts
21-Jun-17 23:28 -16.894322 -37.944818 31 33155ft 498kts
21-Jun-17 23:29 -16.778761 -37.865252 31 33157ft 497kts
21-Jun-17 23:30 -16.663627 -37.786138 31 33157ft 497kts
21-Jun-17 23:31 -16.548201 -37.706935 31 33157ft 497kts
21-Jun-17 23:32 -16.433077 -37.628054 31 33157ft 497kts
21-Jun-17 23:33 -16.317376 -37.548892 31 33157ft 498kts
21-Jun-17 23:34 -16.202278 -37.470256 31 33157ft 498kts
21-Jun-17 23:35 -16.086929 -37.391256 32 33157ft 498kts
21-Jun-17 23:36 -15.971707 -37.311704 31 33154ft 498kts
21-Jun-17 23:37 -15.856750 -37.232473 31 33157ft 498kts
21-Jun-17 23:38 -15.741774 -37.153334 31 33156ft 498kts
21-Jun-17 23:39 -15.626549 -37.074136 31 33156ft 498kts
21-Jun-17 23:40 -15.511721 -36.995318 31 33156ft 498kts
21-Jun-17 23:41 -15.396413 -36.916277 31 33156ft 498kts
21-Jun-17 23:42 -15.281261 -36.837447 31 33156ft 498kts
21-Jun-17 23:43 -15.165877 -36.758527 31 33106ft 499kts
21-Jun-17 23:44 -15.050855 -36.679897 31 33077ft 494kts
21-Jun-17 23:45 -14.935980 -36.601620 31 33074ft 495kts
21-Jun-17 23:46 -14.821643 -36.523757 31 33077ft 495kts
21-Jun-17 23:47 -14.706851 -36.445672 31 33078ft 495kts
21-Jun-17 23:48 -14.592394 -36.367911 31 33077ft 495kts
21-Jun-17 23:49 -14.477589 -36.289992 31 33070ft 494kts
21-Jun-17 23:50 -14.362925 -36.212307 31 33074ft 495kts
21-Jun-17 23:51 -14.247906 -36.134459 31 33073ft 495kts
21-Jun-17 23:52 -14.133220 -36.056934 31 33074ft 495kts
21-Jun-17 23:53 -14.018135 -35.979233 31 33073ft 495kts
21-Jun-17 23:54 -13.903419 -35.901875 31 33073ft 495kts
21-Jun-17 23:55 -13.789744 -35.825312 31 33077ft 495kts
21-Jun-17 23:56 -13.674865 -35.748021 31 33077ft 495kts
21-Jun-17 23:57 -13.559848 -35.670744 31 33076ft 495kts
21-Jun-17 23:58 -13.444692 -35.593456 31 33076ft 496kts
21-Jun-17 23:59 -13.329687 -35.516360 31 33049ft 496kts
22-Jun-17 00:00 -13.214416 -35.439174 31 33049ft 496kts
22-Jun-17 00:01 -13.099047 -35.362009 31 33048ft 496kts
22-Jun-17 00:02 -12.983806 -35.285064 31 33053ft 497kts
22-Jun-17 00:03 -12.868517 -35.208085 31 33050ft 496kts
22-Jun-17 00:04 -12.753271 -35.131262 31 33048ft 496kts
22-Jun-17 00:05 -12.637885 -35.054432 31 33048ft 496kts
22-Jun-17 00:06 -12.522514 -34.977697 31 33048ft 496kts
22-Jun-17 00:07 -12.406852 -34.900851 31 33048ft 496kts
22-Jun-17 00:08 -12.291610 -34.824365 31 33048ft 496kts
22-Jun-17 00:09 -12.176016 -34.747722 31 33049ft 496kts
22-Jun-17 00:10 -12.060274 -34.671072 31 33047ft 496kts
22-Jun-17 00:11 -11.944886 -34.594727 31 33047ft 496kts
22-Jun-17 00:12 -11.830498 -34.519132 31 33050ft 496kts
22-Jun-17 00:13 -11.714717 -34.442690 31 33050ft 496kts
22-Jun-17 00:14 -11.599023 -34.366379 31 33050ft 496kts
22-Jun-17 00:15 -11.483270 -34.290131 31 33050ft 496kts
22-Jun-17 00:16 -11.367410 -34.213854 31 33047ft 496kts
22-Jun-17 00:17 -11.251835 -34.137859 31 33047ft 497kts
22-Jun-17 00:18 -11.135930 -34.061720 31 33047ft 497kts
22-Jun-17 00:19 -11.020042 -33.985665 31 33047ft 497kts
22-Jun-17 00:20 -10.904005 -33.909584 31 33047ft 497kts
22-Jun-17 00:21 -10.790240 -33.835064 31 33049ft 497kts
22-Jun-17 00:22 -10.674814 -33.759521 31 33050ft 497kts
22-Jun-17 00:23 -10.558705 -33.683608 31 33049ft 497kts
22-Jun-17 00:24 -10.442585 -33.607751 31 33049ft 497kts
22-Jun-17 00:25 -10.326430 -33.531942 31 33049ft 497kts
22-Jun-17 00:26 -10.210511 -33.456353 31 33049ft 497kts
22-Jun-17 00:27 -10.094259 -33.380613 31 33018ft 498kts
22-Jun-17 00:28 -9.978289 -33.305129 31 32992ft 498kts
22-Jun-17 00:29 -9.863607 -33.230541 31 32995ft 498kts
22-Jun-17 00:30 -9.747124 -33.154845 31 32994ft 498kts
22-Jun-17 00:31 -9.630873 -33.079366 31 32994ft 498kts
22-Jun-17 00:32 -9.514399 -33.003803 31 32994ft 498kts
22-Jun-17 00:33 -9.397872 -32.928269 31 32994ft 498kts
22-Jun-17 00:34 -9.281465 -32.852874 31 32994ft 498kts
22-Jun-17 00:35 -9.165291 -32.777682 31 32994ft 497kts
22-Jun-17 00:36 -9.048908 -32.702428 31 32993ft 497kts
22-Jun-17 00:37 -8.933234 -32.627682 31 32993ft 497kts
22-Jun-17 00:38 -8.818196 -32.553410 31 32996ft 497kts
22-Jun-17 00:39 -8.702147 -32.478540 31 32996ft 497kts
22-Jun-17 00:40 -8.585654 -32.403444 31 32996ft 497kts
22-Jun-17 00:41 -8.469202 -32.328429 30 32992ft 497kts
22-Jun-17 00:42 -8.353075 -32.253680 30 32993ft 497kts
22-Jun-17 00:43 -8.236909 -32.178959 30 32993ft 497kts
22-Jun-17 00:44 -8.120420 -32.104082 30 32993ft 497kts
22-Jun-17 00:45 -8.004040 -32.029328 30 32992ft 497kts
22-Jun-17 00:46 -7.887716 -31.954659 30 32994ft 497kts
22-Jun-17 00:47 -7.771485 -31.880103 30 32995ft 497kts
22-Jun-17 00:48 -7.655450 -31.805721 30 32995ft 497kts
22-Jun-17 00:49 -7.538787 -31.730986 30 32995ft 497kts
22-Jun-17 00:50 -7.422680 -31.656654 30 32995ft 497kts
22-Jun-17 00:51 -7.306180 -31.582119 30 32995ft 496kts
22-Jun-17 00:52 -7.190018 -31.507845 30 32994ft 496kts
22-Jun-17 00:53 -7.074014 -31.433717 30 32994ft 496kts
22-Jun-17 00:54 -6.957609 -31.359379 30 32994ft 496kts
22-Jun-17 00:55 -6.841506 -31.285283 30 32994ft 496kts
22-Jun-17 00:56 -6.725235 -31.211119 30 32994ft 496kts
22-Jun-17 00:57 -6.609137 -31.137110 30 32994ft 496kts
22-Jun-17 00:58 -6.492832 -31.063007 30 32994ft 496kts
22-Jun-17 00:59 -6.376747 -30.989087 30 32994ft 495kts
22-Jun-17 01:00 -6.260521 -30.915117 30 32993ft 495kts
22-Jun-17 01:01 -6.144540 -30.841341 30 32993ft 495kts
22-Jun-17 01:02 -6.028345 -30.767464 30 32993ft 495kts
22-Jun-17 01:03 -5.911912 -30.693473 30 32993ft 495kts
22-Jun-17 01:04 -5.796097 -30.619918 30 32996ft 495kts
22-Jun-17 01:05 -5.679883 -30.546142 30 32996ft 495kts
22-Jun-17 01:06 -5.563687 -30.472413 30 32996ft 495kts
22-Jun-17 01:07 -5.447587 -30.398779 30 32996ft 494kts
22-Jun-17 01:08 -5.331864 -30.325417 30 32992ft 494kts
22-Jun-17 01:09 -5.215873 -30.251921 30 32992ft 494kts
22-Jun-17 01:10 -5.099820 -30.178417 30 32992ft 494kts
22-Jun-17 01:11 -4.983998 -30.105092 30 32992ft 494kts
22-Jun-17 01:12 -4.868045 -30.031715 30 32996ft 494kts
22-Jun-17 01:13 -4.751842 -29.958207 30 32995ft 494kts
22-Jun-17 01:14 -4.636267 -29.885128 30 32995ft 494kts
22-Jun-17 01:15 -4.520246 -29.811797 30 32995ft 494kts
22-Jun-17 01:16 -4.404178 -29.738463 30 32994ft 494kts
22-Jun-17 01:17 -4.288605 -29.665471 30 32994ft 493kts
22-Jun-17 01:18 -4.172831 -29.592374 30 32994ft 493kts
22-Jun-17 01:19 -4.057049 -29.519299 30 32994ft 493kts
22-Jun-17 01:20 -3.941017 -29.446094 30 32993ft 493kts
22-Jun-17 01:21 -3.825461 -29.373217 30 32997ft 493kts
22-Jun-17 01:22 -3.709658 -29.300203 30 32994ft 493kts
22-Jun-17 01:23 -3.594223 -29.227457 30 32994ft 492kts
22-Jun-17 01:24 -3.478362 -29.154513 29 32993ft 492kts
22-Jun-17 01:25 -3.362847 -29.081809 29 32993ft 492kts
22-Jun-17 01:26 -3.247034 -29.008937 29 32993ft 492kts
22-Jun-17 01:27 -3.131689 -28.936380 29 32993ft 492kts
22-Jun-17 01:28 -3.015976 -28.863570 29 32992ft 492kts
22-Jun-17 01:29 -2.900558 -28.790904 29 32992ft 492kts
22-Jun-17 01:30 -2.785117 -28.718243 29 32996ft 492kts
22-Jun-17 01:31 -2.669402 -28.645425 29 32996ft 491kts
22-Jun-17 01:31 -2.573510 -28.585094 29 32996ft 491kts
22-Jun-17 01:32 -2.458059 -28.512469 29 32995ft 491kts
22-Jun-17 01:34 -2.323340 -28.427745 29 32995ft 491kts
22-Jun-17 01:35 -2.227434 -28.367439 29 32995ft 491kts
22-Jun-17 01:36 -2.094146 -28.283654 29 32991ft 491kts
22-Jun-17 01:37 -1.997791 -28.223088 29 32991ft 490kts
22-Jun-17 01:38 -1.882819 -28.150833 29 32994ft 490kts
22-Jun-17 01:39 -1.767665 -28.078474 29 32995ft 490kts
22-Jun-17 01:40 -1.652291 -28.005990 29 32995ft 490kts
22-Jun-17 01:41 -1.537089 -27.933628 29 32994ft 490kts
22-Jun-17 01:42 -1.422281 -27.861514 29 32994ft 490kts
22-Jun-17 01:43 -1.307019 -27.789128 29 32994ft 490kts
22-Jun-17 01:44 -1.192206 -27.717031 29 32993ft 489kts
22-Jun-17 01:45 -1.077139 -27.644781 29 32993ft 489kts
22-Jun-17 01:46 -0.962220 -27.572634 29 32992ft 489kts
22-Jun-17 01:47 -0.847334 -27.500512 29 32997ft 489kts
22-Jun-17 01:48 -0.732192 -27.428238 29 32997ft 489kts
22-Jun-17 01:49 -0.617283 -27.356109 29 32997ft 489kts
22-Jun-17 01:50 -0.502200 -27.284497 29 32993ft 489kts
22-Jun-17 01:51 -0.387243 -27.213363 29 32993ft 488kts
22-Jun-17 01:52 -0.272017 -27.142062 29 32992ft 488kts
22-Jun-17 01:53 -0.157153 -27.070094 29 32992ft 488kts
22-Jun-17 01:54 -0.042715 -26.998328 29 32991ft 488kts
22-Jun-17 01:55 0.072123 -26.926310 29 32991ft 488kts
22-Jun-17 01:56 0.186860 -26.854359 29 32996ft 487kts
22-Jun-17 01:57 0.301128 -26.782696 29 32996ft 487kts
22-Jun-17 01:58 0.415625 -26.710888 29 32995ft 487kts
22-Jun-17 01:59 0.530276 -26.638982 29 32995ft 487kts
22-Jun-17 02:00 0.644808 -26.567147 29 32994ft 487kts
22-Jun-17 02:01 0.759091 -26.495465 29 32994ft 487kts
22-Jun-17 02:02 0.873452 -26.423728 29 32993ft 486kts
22-Jun-17 02:03 0.987717 -26.352044 29 32993ft 486kts
22-Jun-17 02:04 1.100890 -26.281050 29 32989ft 486kts
22-Jun-17 02:05 1.215372 -26.209221 29 32995ft 486kts
22-Jun-17 02:06 1.329439 -26.137694 29 32995ft 486kts
22-Jun-17 02:07 1.443363 -26.066247 29 32994ft 486kts
22-Jun-17 02:08 1.557651 -25.994562 29 32994ft 486kts
22-Jun-17 02:09 1.671986 -25.922839 29 32993ft 485kts
22-Jun-17 02:10 1.786048 -25.851277 29 32993ft 485kts
22-Jun-17 02:11 1.899853 -25.779867 29 32992ft 485kts
22-Jun-17 02:12 2.013821 -25.708340 29 32991ft 485kts
22-Jun-17 02:13 2.127700 -25.636859 29 32999ft 485kts
22-Jun-17 02:14 2.241555 -25.565385 29 32997ft 485kts
22-Jun-17 02:15 2.355552 -25.493803 29 32997ft 485kts
22-Jun-17 02:16 2.469386 -25.422312 29 32996ft 484kts
22-Jun-17 02:17 2.582929 -25.350985 29 32995ft 484kts
22-Jun-17 02:18 2.696724 -25.279489 29 32992ft 484kts
22-Jun-17 02:19 2.810284 -25.208122 29 32991ft 484kts
22-Jun-17 02:20 2.923940 -25.136680 29 32991ft 483kts
22-Jun-17 02:21 3.037545 -25.065250 29 32990ft 483kts
22-Jun-17 02:22 3.151208 -24.993766 29 32997ft 483kts
22-Jun-17 02:23 3.264547 -24.922469 29 32996ft 483kts
22-Jun-17 02:24 3.377897 -24.851152 29 32995ft 482kts
22-Jun-17 02:25 3.491065 -24.779917 29 32995ft 482kts
22-Jun-17 02:26 3.604512 -24.708489 29 32994ft 482kts
22-Jun-17 02:27 3.717564 -24.637290 29 32993ft 482kts
22-Jun-17 02:28 3.830964 -24.565850 29 32993ft 482kts
22-Jun-17 02:29 3.944296 -24.494437 29 32992ft 482kts
22-Jun-17 02:30 4.057088 -24.423327 29 32991ft 482kts
22-Jun-17 02:31 4.170611 -24.351745 29 32998ft 482kts
22-Jun-17 02:32 4.283654 -24.280434 29 32995ft 482kts
22-Jun-17 02:33 4.396502 -24.209224 29 32994ft 481kts
22-Jun-17 02:34 4.509581 -24.137849 29 32993ft 481kts
22-Jun-17 02:35 4.622433 -24.066578 29 32993ft 481kts
22-Jun-17 02:36 4.735391 -23.995216 29 32992ft 481kts
22-Jun-17 02:37 4.848133 -23.923965 29 32991ft 481kts
22-Jun-17 02:38 4.961169 -23.852498 29 32991ft 481kts
22-Jun-17 02:39 5.073679 -23.781341 29 32990ft 480kts
22-Jun-17 02:40 5.186716 -23.709803 29 32998ft 482kts
22-Jun-17 02:41 5.299529 -23.638398 29 32997ft 482kts
22-Jun-17 02:42 5.412672 -23.566742 29 32996ft 482kts
22-Jun-17 02:43 5.525676 -23.495144 29 32995ft 481kts
22-Jun-17 02:44 5.638344 -23.423723 29 32995ft 481kts
22-Jun-17 02:45 5.751222 -23.352136 29 32994ft 481kts
22-Jun-17 02:46 5.864045 -23.280557 29 32990ft 481kts
22-Jun-17 02:47 5.976740 -23.209018 29 32989ft 481kts
22-Jun-17 02:48 6.089571 -23.137360 29 32989ft 480kts
22-Jun-17 02:49 6.202096 -23.065855 29 32996ft 480kts
22-Jun-17 02:50 6.314592 -22.994338 29 32996ft 480kts
22-Jun-17 02:51 6.427131 -22.922722 29 32995ft 480kts
22-Jun-17 02:52 6.539889 -22.850919 29 32994ft 480kts
22-Jun-17 02:53 6.652271 -22.779317 29 32993ft 479kts
22-Jun-17 02:54 6.764405 -22.707831 29 32993ft 479kts
22-Jun-17 02:55 6.876614 -22.636261 29 32992ft 479kts
22-Jun-17 02:56 6.989231 -22.564385 29 32991ft 479kts
22-Jun-17 02:57 7.101483 -22.492702 29 32990ft 479kts
22-Jun-17 02:58 7.213520 -22.421126 29 32998ft 478kts
22-Jun-17 02:59 7.325382 -22.349608 29 32997ft 478kts
22-Jun-17 03:00 7.437356 -22.277975 29 32994ft 478kts
22-Jun-17 03:01 7.549450 -22.206222 29 32993ft 478kts
22-Jun-17 03:02 7.661628 -22.134372 29 32992ft 478kts
22-Jun-17 03:03 7.773239 -22.062842 29 32991ft 477kts
22-Jun-17 03:04 7.885003 -21.991164 29 32990ft 477kts
22-Jun-17 03:05 7.996740 -21.919459 29 32990ft 477kts
22-Jun-17 03:06 8.108489 -21.847697 29 32992ft 477kts
22-Jun-17 03:07 8.219905 -21.776104 29 32997ft 477kts
22-Jun-17 03:08 8.331519 -21.704337 29 32996ft 477kts
22-Jun-17 03:09 8.443303 -21.632406 29 32995ft 477kts
22-Jun-17 03:10 8.554951 -21.560514 29 32995ft 476kts
22-Jun-17 03:11 8.665985 -21.488966 29 32994ft 476kts
22-Jun-17 03:12 8.777464 -21.417081 29 32993ft 476kts
22-Jun-17 03:13 8.889005 -21.345108 29 32991ft 476kts
22-Jun-17 03:14 9.000295 -21.273243 29 32989ft 476kts
22-Jun-17 03:15 9.111426 -21.201426 29 32992ft 476kts
22-Jun-17 03:16 9.223165 -21.129726 31 33009ft 480kts
22-Jun-17 03:17 9.334549 -21.057140 32 32996ft 477kts
22-Jun-17 03:18 9.446181 -20.984773 32 32994ft 477kts
22-Jun-17 03:19 9.557634 -20.912520 32 32994ft 477kts
22-Jun-17 03:20 9.668962 -20.840292 32 33017ft 477kts
22-Jun-17 03:21 9.780514 -20.767877 32 33019ft 477kts
22-Jun-17 03:22 9.892127 -20.695348 32 33018ft 477kts
22-Jun-17 03:23 10.003489 -20.622926 32 33017ft 477kts
22-Jun-17 03:24 10.114897 -20.550415 32 33020ft 477kts
22-Jun-17 03:25 10.226366 -20.477813 32 33021ft 477kts
22-Jun-17 03:26 10.337656 -20.405248 32 33019ft 477kts
22-Jun-17 03:27 10.449187 -20.332478 32 33023ft 477kts
22-Jun-17 03:28 10.560380 -20.259870 32 33021ft 477kts
22-Jun-17 03:29 10.671666 -20.187125 32 33021ft 477kts
22-Jun-17 03:30 10.782764 -20.114443 32 33020ft 477kts
22-Jun-17 03:31 10.894059 -20.041569 32 33019ft 477kts
22-Jun-17 03:32 11.005148 -19.968763 32 33018ft 477kts
22-Jun-17 03:33 11.115172 -19.896577 32 33027ft 478kts
22-Jun-17 03:34 11.226311 -19.823617 32 32996ft 477kts
22-Jun-17 03:35 11.337410 -19.750612 32 33020ft 477kts
22-Jun-17 03:36 11.448413 -19.677586 32 32963ft 476kts
22-Jun-17 03:37 11.559317 -19.604584 32 32965ft 477kts
22-Jun-17 03:38 11.670591 -19.531266 32 32964ft 476kts
22-Jun-17 03:39 11.781542 -19.458102 32 32963ft 476kts
22-Jun-17 03:40 11.892512 -19.384882 32 32957ft 471kts
22-Jun-17 03:41 12.003640 -19.311403 32 32965ft 476kts
22-Jun-17 03:42 12.114477 -19.238097 33 32968ft 476kts
22-Jun-17 03:43 12.225337 -19.164700 33 32969ft 476kts
22-Jun-17 03:44 12.336224 -19.091199 33 32968ft 476kts
22-Jun-17 03:45 12.447202 -19.017567 33 32967ft 476kts
22-Jun-17 03:46 12.557907 -18.944042 33 32966ft 476kts
22-Jun-17 03:47 12.668695 -18.870395 33 32966ft 476kts
22-Jun-17 03:48 12.779438 -18.796676 33 32962ft 476kts
22-Jun-17 03:49 12.890191 -18.722890 33 32964ft 476kts
22-Jun-17 03:50 13.000763 -18.649141 33 32963ft 476kts
22-Jun-17 03:51 13.109937 -18.576660 35 32975ft 462kts
22-Jun-17 03:52 13.216350 -18.505258 36 32963ft 460kts
22-Jun-17 03:53 13.323107 -18.433707 36 32960ft 460kts
22-Jun-17 03:53 13.412204 -18.374030 36 32955ft 461kts
22-Jun-17 03:55 13.535458 -18.291397 36 32973ft 459kts
22-Jun-17 03:55 13.624175 -18.231860 36 32969ft 460kts
22-Jun-17 03:56 13.730857 -18.160195 36 32968ft 460kts
22-Jun-17 03:58 13.837454 -18.088506 36 32967ft 460kts
22-Jun-17 03:59 13.944315 -18.016558 36 32965ft 460kts
22-Jun-17 04:00 14.050995 -17.944631 36 32964ft 460kts
22-Jun-17 04:01 14.158028 -17.872364 36 32986ft 469kts
22-Jun-17 04:02 14.264397 -17.800494 36 32968ft 459kts
22-Jun-17 04:03 14.371075 -17.728321 36 32964ft 459kts
22-Jun-17 04:04 14.477706 -17.656093 36 32963ft 459kts
22-Jun-17 04:05 14.584124 -17.583924 36 32961ft 459kts
22-Jun-17 04:06 14.690659 -17.511592 36 32960ft 459kts
22-Jun-17 04:07 14.795012 -17.435849 39 32961ft 458kts
22-Jun-17 04:08 14.896344 -17.357378 40 32957ft 457kts
22-Jun-17 04:09 14.998316 -17.278286 40 32966ft 454kts
22-Jun-17 04:10 15.099634 -17.199553 40 32967ft 457kts
22-Jun-17 04:11 15.200232 -17.121303 40 32970ft 457kts
22-Jun-17 04:12 15.301391 -17.042521 40 32968ft 457kts
22-Jun-17 04:13 15.402951 -16.963329 40 32967ft 457kts
22-Jun-17 04:14 15.503987 -16.884447 40 32966ft 457kts
22-Jun-17 04:15 15.605425 -16.805150 40 32964ft 457kts
22-Jun-17 04:16 15.707187 -16.725515 40 32915ft 456kts
22-Jun-17 04:17 15.808395 -16.646178 40 32935ft 458kts
22-Jun-17 04:18 15.909788 -16.566613 40 32933ft 458kts
22-Jun-17 04:19 16.011028 -16.487063 40 32931ft 458kts
22-Jun-17 04:20 16.113739 -16.409323 38 32933ft 459kts
22-Jun-17 04:21 16.216877 -16.332934 39 32947ft 458kts
22-Jun-17 04:22 16.320093 -16.256428 39 32944ft 458kts
22-Jun-17 04:23 16.423728 -16.179496 39 32943ft 458kts
22-Jun-17 04:24 16.527574 -16.102313 39 32916ft 453kts
22-Jun-17 04:25 16.630604 -16.025548 39 32940ft 458kts
22-Jun-17 04:26 16.733225 -15.949007 39 32938ft 458kts
22-Jun-17 04:27 16.836568 -15.871820 39 32963ft 458kts
22-Jun-17 04:28 16.939869 -15.794559 39 32962ft 458kts
22-Jun-17 04:29 17.043051 -15.717280 39 32961ft 458kts
22-Jun-17 04:30 17.146244 -15.639894 39 32964ft 458kts
22-Jun-17 04:31 17.249217 -15.562575 39 32963ft 458kts
22-Jun-17 04:32 17.352427 -15.484966 39 32961ft 458kts
22-Jun-17 04:33 17.455467 -15.407375 39 32960ft 458kts
22-Jun-17 04:34 17.558460 -15.329703 39 32973ft 457kts
22-Jun-17 04:35 17.661508 -15.251910 39 32969ft 457kts
22-Jun-17 04:36 17.764278 -15.174302 39 32968ft 457kts
22-Jun-17 04:37 17.867413 -15.096336 39 32967ft 457kts
22-Jun-17 04:38 17.970342 -15.018473 39 32965ft 457kts
22-Jun-17 04:39 18.073134 -14.940603 39 32964ft 457kts
22-Jun-17 04:40 18.175762 -14.862742 39 32967ft 457kts
22-Jun-17 04:41 18.277823 -14.785198 39 32965ft 457kts
22-Jun-17 04:42 18.380439 -14.707115 39 32964ft 457kts
22-Jun-17 04:43 18.482997 -14.628950 39 32962ft 456kts
22-Jun-17 04:44 18.585827 -14.550476 39 32961ft 456kts
22-Jun-17 04:45 18.688334 -14.472121 39 32959ft 456kts
22-Jun-17 04:46 18.790896 -14.393604 39 32958ft 456kts
22-Jun-17 04:47 18.893138 -14.315273 40 32959ft 471kts
22-Jun-17 04:48 19.008393 -14.226341 39 32976ft 537kts
22-Jun-17 04:49 19.127904 -14.134738 40 32961ft 534kts
22-Jun-17 04:50 19.248011 -14.042177 40 32964ft 534kts
22-Jun-17 04:51 19.367672 -13.949772 39 32965ft 535kts
22-Jun-17 04:52 19.487821 -13.856825 39 32966ft 535kts
22-Jun-17 04:53 19.607844 -13.763783 39 32969ft 536kts
22-Jun-17 04:54 19.727535 -13.670827 39 32971ft 536kts
22-Jun-17 04:55 19.847364 -13.577616 39 32986ft 536kts
22-Jun-17 04:56 19.966693 -13.484595 39 32999ft 537kts
22-Jun-17 04:57 20.086818 -13.390773 39 33000ft 537kts
22-Jun-17 04:58 20.206992 -13.296736 40 32990ft 537kts
22-Jun-17 04:59 20.327162 -13.202513 40 32992ft 537kts
22-Jun-17 05:00 20.447375 -13.108044 40 32982ft 536kts
22-Jun-17 05:01 20.583844 -13.044445 15 33005ft 548kts
22-Jun-17 05:02 20.731691 -13.005468 15 32997ft 548kts
22-Jun-17 05:03 20.879128 -12.966429 15 32999ft 548kts
22-Jun-17 05:04 21.026758 -12.927261 15 33001ft 548kts
22-Jun-17 05:05 21.171823 -12.888686 15 32990ft 548kts
22-Jun-17 05:06 21.319338 -12.849398 15 32965ft 547kts
22-Jun-17 05:07 21.467035 -12.809819 13 32918ft 550kts
22-Jun-17 05:08 21.613609 -12.769946 6 32975ft 499kts
22-Jun-17 05:09 21.741357 -12.736431 7 32972ft 468kts
22-Jun-17 05:10 21.867893 -12.702522 7 32967ft 470kts
22-Jun-17 05:11 21.993627 -12.668704 7 32966ft 470kts
22-Jun-17 05:12 22.120183 -12.634598 7 32974ft 470kts
22-Jun-17 05:13 22.246482 -12.600500 7 32975ft 470kts
22-Jun-17 05:14 22.373707 -12.566051 7 32951ft 466kts
22-Jun-17 05:15 22.499937 -12.531874 7 32973ft 470kts
22-Jun-17 05:16 22.626291 -12.497560 7 32972ft 470kts
22-Jun-17 05:17 22.752883 -12.463104 7 32970ft 471kts
22-Jun-17 05:18 22.878205 -12.418032 11 32971ft 476kts
22-Jun-17 05:19 23.003391 -12.372393 11 32970ft 476kts
22-Jun-17 05:20 23.128449 -12.326712 11 32969ft 476kts
22-Jun-17 05:21 23.254191 -12.280665 11 32932ft 475kts
22-Jun-17 05:22 23.379518 -12.234731 11 32938ft 477kts
22-Jun-17 05:23 23.504801 -12.188689 11 32937ft 478kts
22-Jun-17 05:24 23.630541 -12.142390 11 32967ft 478kts
22-Jun-17 05:25 23.756212 -12.096020 11 33044ft 478kts
22-Jun-17 05:26 23.880930 -12.049911 11 33043ft 478kts
22-Jun-17 05:27 24.006356 -12.003443 11 33043ft 478kts
22-Jun-17 05:28 24.132371 -11.956622 11 33044ft 476kts
22-Jun-17 05:29 24.257897 -11.909963 11 33052ft 479kts
22-Jun-17 05:30 24.383795 -11.863027 11 33051ft 479kts
22-Jun-17 05:31 24.509398 -11.816103 11 33050ft 479kts
22-Jun-17 05:32 24.635285 -11.768971 11 33049ft 480kts
22-Jun-17 05:33 24.761232 -11.721720 11 33049ft 480kts
22-Jun-17 05:34 24.887310 -11.674318 11 33048ft 480kts
22-Jun-17 05:35 25.013706 -11.626646 11 33031ft 476kts
22-Jun-17 05:36 25.138858 -11.579434 11 33059ft 480kts
22-Jun-17 05:37 25.265042 -11.529987 12 33058ft 483kts
22-Jun-17 05:38 25.390627 -11.478149 13 33056ft 483kts
22-Jun-17 05:39 25.516018 -11.426220 13 33055ft 483kts
22-Jun-17 05:40 25.641148 -11.374282 13 33055ft 483kts
22-Jun-17 05:41 25.766041 -11.322328 13 33042ft 484kts
22-Jun-17 05:42 25.892419 -11.269587 13 33023ft 480kts
22-Jun-17 05:43 26.017915 -11.217200 13 33040ft 484kts
22-Jun-17 05:44 26.143709 -11.164504 13 33051ft 486kts
22-Jun-17 05:45 26.269377 -11.111748 13 33049ft 485kts
22-Jun-17 05:46 26.395559 -11.058653 13 33048ft 485kts
22-Jun-17 05:47 26.521776 -11.005417 13 33048ft 486kts
22-Jun-17 05:48 26.648011 -10.952048 13 33047ft 486kts
22-Jun-17 05:49 26.774207 -10.898570 13 33047ft 486kts
22-Jun-17 05:50 26.900855 -10.844737 13 33047ft 486kts
22-Jun-17 05:51 27.027424 -10.790879 13 33046ft 489kts
22-Jun-17 05:52 27.154429 -10.736667 13 33055ft 490kts
22-Jun-17 05:53 27.281450 -10.682316 13 33055ft 491kts
22-Jun-17 05:54 27.408425 -10.627853 13 33054ft 491kts
22-Jun-17 05:55 27.535926 -10.573028 13 33053ft 491kts
22-Jun-17 05:56 27.662193 -10.518604 13 33053ft 492kts
22-Jun-17 05:57 27.789918 -10.465450 12 33053ft 491kts
22-Jun-17 05:58 27.918399 -10.411902 12 33042ft 490kts
22-Jun-17 05:59 28.045959 -10.358647 12 33054ft 492kts
22-Jun-17 06:00 28.173750 -10.305140 13 33046ft 493kts
22-Jun-17 06:01 28.301762 -10.251404 13 33047ft 494kts
22-Jun-17 06:02 28.430185 -10.197355 13 33031ft 494kts
22-Jun-17 06:03 28.558512 -10.143209 13 33019ft 493kts
22-Jun-17 06:04 28.687227 -10.088754 13 33018ft 495kts
22-Jun-17 06:05 28.815721 -10.034251 13 33018ft 495kts
22-Jun-17 06:06 28.944879 -9.979311 13 33025ft 495kts
22-Jun-17 06:07 29.073576 -9.924395 13 33018ft 496kts
22-Jun-17 06:08 29.202152 -9.869341 13 33025ft 497kts
22-Jun-17 06:09 29.330916 -9.814056 13 33025ft 497kts
22-Jun-17 06:10 29.460300 -9.758354 13 33025ft 497kts
22-Jun-17 06:11 29.587908 -9.703268 13 33025ft 498kts
22-Jun-17 06:12 29.717275 -9.647269 13 33025ft 498kts
22-Jun-17 06:13 29.847202 -9.590841 13 33010ft 497kts
22-Jun-17 06:14 29.976446 -9.534620 13 33025ft 499kts
22-Jun-17 06:15 30.105926 -9.478100 13 33025ft 500kts
22-Jun-17 06:16 30.235406 -9.421431 13 33030ft 500kts
22-Jun-17 06:17 30.367951 -9.395177 345 33033ft 472kts
22-Jun-17 06:18 30.492999 -9.430853 339 33029ft 466kts
22-Jun-17 06:19 30.618724 -9.466198 339 33028ft 467kts
22-Jun-17 06:20 30.744913 -9.501571 339 33027ft 467kts
22-Jun-17 06:21 30.871165 -9.536989 339 33050ft 464kts
22-Jun-17 06:22 30.996892 -9.572435 339 33052ft 467kts
22-Jun-17 06:23 31.100443 -9.601662 339 33051ft 468kts
22-Jun-17 06:24 31.247610 -9.643326 339 33054ft 468kts
22-Jun-17 06:25 31.376084 -9.670281 354 33055ft 484kts
22-Jun-17 06:26 31.485710 -9.632474 23 33056ft 516kts
22-Jun-17 06:27 31.604486 -9.540881 24 33054ft 518kts
22-Jun-17 06:28 31.727171 -9.451583 24 33044ft 518kts
22-Jun-17 06:29 31.849469 -9.362794 24 33057ft 520kts
22-Jun-17 06:30 31.972256 -9.273327 25 33043ft 521kts
22-Jun-17 06:31 32.095053 -9.183571 25 33043ft 522kts
22-Jun-17 06:32 32.217969 -9.093450 25 33055ft 523kts
22-Jun-17 06:33 32.341055 -9.002892 25 33130ft 523kts
22-Jun-17 06:34 32.464357 -8.911895 25 33130ft 524kts
22-Jun-17 06:35 32.587584 -8.820702 25 33126ft 528kts
22-Jun-17 06:36 32.711219 -8.728796 25 33162ft 524kts
22-Jun-17 06:37 32.834543 -8.636891 25 33161ft 525kts
22-Jun-17 06:38 32.958044 -8.544535 25 33161ft 526kts
22-Jun-17 06:39 33.081515 -8.451890 25 33109ft 526kts
22-Jun-17 06:40 33.205023 -8.358928 25 33169ft 527kts
22-Jun-17 06:41 33.326935 -8.267207 26 33098ft 528kts
22-Jun-17 06:42 33.449848 -8.174411 26 33100ft 529kts
22-Jun-17 06:43 33.574177 -8.080177 26 33106ft 528kts
22-Jun-17 06:44 33.698113 -7.985992 26 33102ft 530kts
22-Jun-17 06:45 33.822549 -7.891069 26 33104ft 531kts
22-Jun-17 06:46 33.946924 -7.795839 26 33105ft 531kts
22-Jun-17 06:47 34.071243 -7.700332 26 33190ft 533kts
22-Jun-17 06:48 34.195948 -7.604211 26 33189ft 533kts
22-Jun-17 06:49 34.320367 -7.507984 26 33158ft 536kts
22-Jun-17 06:50 34.445007 -7.411149 26 33165ft 534kts
22-Jun-17 06:51 34.569176 -7.314427 27 33151ft 535kts
22-Jun-17 06:52 34.694137 -7.216659 27 33153ft 535kts
22-Jun-17 06:53 34.819178 -7.118518 27 33155ft 536kts
22-Jun-17 06:54 34.943994 -7.020173 27 33156ft 536kts
22-Jun-17 06:55 35.068889 -6.921418 27 33158ft 537kts
22-Jun-17 06:56 35.190715 -6.824802 27 33155ft 541kts
22-Jun-17 06:57 35.314814 -6.725878 27 33160ft 538kts
22-Jun-17 06:58 35.440381 -6.628376 26 33161ft 537kts
22-Jun-17 06:59 35.567297 -6.531053 28 33174ft 551kts
22-Jun-17 07:00 35.695397 -6.431218 28 33164ft 547kts
22-Jun-17 07:01 35.823275 -6.331738 28 33154ft 547kts
22-Jun-17 07:02 35.948465 -6.225563 31 33156ft 548kts
22-Jun-17 07:03 36.073396 -6.118432 31 33158ft 548kts
22-Jun-17 07:04 36.197759 -6.011415 31 33167ft 553kts
22-Jun-17 07:05 36.311267 -5.885407 42 33130ft 554kts
22-Jun-17 07:06 36.419238 -5.749992 42 33131ft 554kts
22-Jun-17 07:07 36.527307 -5.613802 42 33133ft 554kts
22-Jun-17 07:08 36.634628 -5.477963 42 33114ft 554kts
22-Jun-17 07:09 36.741622 -5.341962 43 33108ft 554kts
22-Jun-17 07:10 36.848691 -5.205286 43 33102ft 554kts
22-Jun-17 07:11 36.956100 -5.067596 43 33104ft 554kts
22-Jun-17 07:12 37.065469 -4.940028 28 33134ft 546kts
22-Jun-17 07:13 37.201468 -4.863683 17 33129ft 539kts
22-Jun-17 07:14 37.339276 -4.791665 17 33103ft 540kts
22-Jun-17 07:15 37.477655 -4.718991 17 33105ft 540kts
22-Jun-17 07:16 37.615725 -4.646188 17 33106ft 540kts
22-Jun-17 07:17 37.753815 -4.573077 17 33108ft 539kts
22-Jun-17 07:18 37.891825 -4.499696 17 33109ft 539kts
22-Jun-17 07:19 38.029341 -4.426300 17 33111ft 539kts
22-Jun-17 07:20 38.165694 -4.353218 17 33107ft 539kts
22-Jun-17 07:21 38.302425 -4.279631 18 33098ft 539kts
22-Jun-17 07:22 38.439925 -4.205314 18 33100ft 538kts
22-Jun-17 07:23 38.577132 -4.130861 18 33101ft 538kts
22-Jun-17 07:24 38.714917 -4.055779 18 33102ft 538kts
22-Jun-17 07:25 38.852179 -3.980666 18 33127ft 538kts
22-Jun-17 07:26 38.989424 -3.905228 18 33159ft 538kts
22-Jun-17 07:27 39.122279 -3.831926 18 33156ft 538kts
22-Jun-17 07:28 39.259630 -3.755814 18 33157ft 538kts
22-Jun-17 07:29 39.396313 -3.679721 18 33158ft 537kts
22-Jun-17 07:30 39.532947 -3.603375 18 33160ft 537kts
22-Jun-17 07:31 39.669478 -3.526735 18 33162ft 537kts
22-Jun-17 07:32 39.804117 -3.443481 28 33163ft 542kts
22-Jun-17 07:33 39.929273 -3.336518 29 33130ft 543kts
22-Jun-17 07:34 40.055177 -3.227932 29 33129ft 543kts
22-Jun-17 07:35 40.179865 -3.119874 29 33127ft 542kts
22-Jun-17 07:36 40.304992 -3.010976 29 33128ft 542kts
22-Jun-17 07:37 40.430290 -2.901411 29 33130ft 542kts
22-Jun-17 07:38 40.555019 -2.791862 29 33131ft 541kts
22-Jun-17 07:39 40.679837 -2.681737 29 33133ft 541kts
22-Jun-17 07:40 40.804484 -2.571263 29 33130ft 544kts
22-Jun-17 07:41 40.930475 -2.459076 30 33137ft 546kts
22-Jun-17 07:42 41.055269 -2.347398 30 33074ft 546kts
22-Jun-17 07:43 41.177781 -2.237252 30 33044ft 546kts
22-Jun-17 07:44 41.302908 -2.124261 30 33046ft 546kts
22-Jun-17 07:45 41.428261 -2.010556 30 33049ft 549kts
22-Jun-17 07:46 41.554093 -1.895788 30 33049ft 549kts
22-Jun-17 07:47 41.679684 -1.780694 30 33051ft 548kts
22-Jun-17 07:48 41.804823 -1.665528 30 33053ft 548kts
22-Jun-17 07:49 41.929960 -1.549774 30 33055ft 548kts
22-Jun-17 07:50 42.054880 -1.433653 30 33108ft 548kts
22-Jun-17 07:51 42.177562 -1.320552 30 33044ft 547kts
22-Jun-17 07:52 42.303260 -1.206523 30 33097ft 547kts
22-Jun-17 07:53 42.429265 -1.091691 30 33116ft 547kts
22-Jun-17 07:54 42.553299 -0.974537 32 33114ft 547kts
22-Jun-17 07:55 42.676368 -0.853517 32 33105ft 547kts
22-Jun-17 07:56 42.799125 -0.732213 32 33133ft 546kts
22-Jun-17 07:57 42.905556 -0.586316 58 33137ft 554kts
22-Jun-17 07:58 42.982140 -0.403320 58 33137ft 555kts
22-Jun-17 07:59 43.057766 -0.222861 59 33130ft 555kts
22-Jun-17 08:00 43.133153 -0.041856 59 33127ft 554kts
22-Jun-17 08:01 43.209021 0.141508 59 33129ft 554kts
22-Jun-17 08:02 43.282378 0.320394 57 33139ft 534kts
22-Jun-17 08:03 43.355097 0.498046 57 33133ft 535kts
22-Jun-17 08:04 43.427006 0.675157 58 33064ft 536kts
22-Jun-17 08:05 43.499154 0.854085 58 33047ft 536kts
22-Jun-17 08:06 43.571091 1.033663 58 33048ft 536kts
22-Jun-17 08:07 43.643022 1.214403 58 33034ft 534kts
22-Jun-17 08:08 43.722357 1.387094 50 33056ft 533kts
22-Jun-17 08:09 43.810033 1.551902 49 33052ft 532kts
22-Jun-17 08:10 43.894676 1.711585 50 33045ft 533kts
22-Jun-17 08:11 43.981151 1.878409 52 33098ft 534kts
22-Jun-17 08:12 44.065282 2.047331 52 33154ft 533kts
22-Jun-17 08:13 44.148201 2.214827 52 33158ft 533kts
22-Jun-17 08:14 44.231945 2.384999 52 33159ft 533kts
22-Jun-17 08:15 44.315686 2.556275 52 33155ft 531kts
22-Jun-17 08:16 44.397908 2.725332 52 33154ft 534kts
22-Jun-17 08:17 44.481039 2.897297 52 33155ft 534kts
22-Jun-17 08:18 44.584558 3.038959 23 33158ft 516kts
22-Jun-17 08:19 44.713332 3.122869 27 33193ft 519kts
22-Jun-17 08:20 44.834197 3.233812 29 33184ft 520kts
22-Jun-17 08:21 44.953880 3.346754 29 33185ft 520kts
22-Jun-17 08:22 45.074332 3.461097 29 33098ft 530kts
22-Jun-17 08:23 45.187225 3.568882 29 33083ft 521kts
22-Jun-17 08:24 45.306248 3.683037 29 33072ft 522kts
22-Jun-17 08:25 45.426193 3.798707 29 33073ft 522kts
22-Jun-17 08:26 45.545845 3.914680 29 33074ft 522kts
22-Jun-17 08:27 45.665457 4.031223 29 33075ft 522kts
22-Jun-17 08:28 45.784891 4.148203 29 33076ft 523kts
22-Jun-17 08:29 45.904403 4.265890 29 33050ft 523kts
22-Jun-17 08:30 46.024162 4.384497 29 33017ft 518kts
22-Jun-17 08:31 46.141642 4.501435 29 33053ft 515kts
22-Jun-17 08:32 46.259523 4.619297 29 33053ft 516kts
22-Jun-17 08:33 46.375200 4.735646 30 33046ft 517kts
22-Jun-17 08:34 46.492639 4.854399 30 33020ft 517kts
22-Jun-17 08:35 46.610357 4.974060 30 33021ft 517kts
22-Jun-17 08:36 46.727747 5.094053 30 33021ft 517kts
22-Jun-17 08:37 46.845032 5.214587 30 33024ft 527kts
22-Jun-17 08:38 46.962627 5.336088 30 33026ft 518kts
22-Jun-17 08:39 47.080008 5.458054 30 33023ft 518kts
22-Jun-17 08:40 47.195218 5.578409 30 33026ft 518kts
22-Jun-17 08:41 47.309095 5.697997 31 33019ft 519kts
22-Jun-17 08:42 47.424594 5.819994 31 33010ft 520kts
22-Jun-17 08:42 47.521941 5.923327 31 32993ft 519kts
22-Jun-17 08:43 47.639019 6.048239 31 32994ft 520kts
22-Jun-17 08:45 47.755206 6.172901 31 32995ft 520kts
22-Jun-17 08:46 47.872376 6.299347 31 33000ft 520kts
22-Jun-17 08:47 47.989229 6.426146 31 32996ft 521kts
22-Jun-17 08:48 48.104856 6.552343 31 32971ft 522kts
22-Jun-17 08:49 48.217529 6.675997 32 32962ft 522kts
22-Jun-17 08:50 48.327188 6.797028 32 32939ft 523kts
22-Jun-17 08:51 48.442682 6.925239 32 31642ft 507kts
22-Jun-17 08:52 48.553247 7.048648 32 30023ft 485kts
22-Jun-17 08:53 48.658433 7.166710 32 28490ft 463kts
22-Jun-17 08:54 48.761082 7.282451 32 27056ft 461kts
22-Jun-17 08:55 48.862713 7.397728 32 25635ft 455kts
22-Jun-17 08:56 48.962638 7.511637 32 24228ft 447kts
22-Jun-17 08:57 49.060525 7.623777 32 22852ft 437kts
22-Jun-17 08:58 49.149276 7.725948 33 21579ft 429kts
22-Jun-17 08:59 49.238743 7.829413 33 20292ft 421kts
22-Jun-17 09:00 49.330864 7.936472 33 18837ft 413kts
22-Jun-17 09:01 49.420845 8.041536 33 17199ft 402kts
22-Jun-17 09:02 49.508611 8.144488 33 15503ft 393kts
22-Jun-17 09:03 49.594151 8.245315 33 13731ft 373kts
22-Jun-17 09:04 49.664750 8.328919 32 11849ft 307kts
22-Jun-17 09:05 49.732962 8.409805 32 10420ft 312kts
22-Jun-17 09:06 49.801950 8.492043 33 9050ft 315kts
22-Jun-17 09:07 49.868076 8.571238 33 7836ft 287kts
22-Jun-17 09:08 49.924173 8.654566 67 6759ft 289kts
22-Jun-17 09:09 49.951979 8.760007 66 5343ft 254kts
22-Jun-17 09:10 49.976878 8.853236 66 4056ft 225kts
22-Jun-17 09:11 50.021741 8.896811 357 2828ft 204kts
22-Jun-17 09:12 50.074596 8.893832 1 2465ft 181kts
22-Jun-17 09:13 50.102879 8.853983 259 2487ft 172kts
22-Jun-17 09:14 50.087270 8.785659 250 2474ft 171kts
22-Jun-17 09:15 50.071906 8.720026 250 2087ft 154kts
22-Jun-17 09:16 50.057143 8.657878 250 1290ft 152kts
22-Jun-17 09:17 50.042874 8.598174 250 510ft 142kts
22-Jun-17 09:18 50.034799 8.564537 247 319ft 31kts
22-Jun-17 09:19 50.029943 8.552315 246 319ft 33kts
22-Jun-17 09:20 50.027986 8.549025 112 319ft 0kts

Navigation Log

Ident Type
Flight plan parsing failed, navigation log unavailable